LHPA

Pápa Air Base Airport

Pápa, Hungary
TAF LHPA 210515Z 2106/2206 19012KT CAVOK BECMG 2203/2206 VRB03KT
Issued Valid From Valid To
Apr-21 @ 05:15 UTC
(5 hours ago)
Apr-21 @ 06:00 UTC
(4 hours ago)
Apr-22 @ 06:00 UTC
(in 20 hours)
Apr-21 @ 06:00 to Apr-22 @ 03:00
TAF LHPA 210515Z 2106/2206 19012KT CAVOK
Wind Visibility Clouds Conditions
190° at 12 knots 10,000+ meters
  • No significant clouds
Becoming Apr-22 @ 03:00 to Apr-22 @ 06:00
BECMG 2203/2206 VRB03KT
Wind Visibility Clouds Conditions
Variable at 3 knots 10,000+ meters
  • No significant clouds
TAF LHPA 210515Z 2106/2206 19012KT CAVOK BECMG 2203/2206 VRB03KT
Issued Apr-21 @ 05:15 UTC
(5 hours ago)
Valid From Apr-21 @ 06:00 UTC
(4 hours ago)
Valid To Apr-22 @ 06:00 UTC
(in 20 hours)
Apr-21 @ 06:00 - Apr-22 @ 03:00
Wind Visibility
190° at 12 knots 10,000+ meters
Clouds
  • No significant clouds
Conditions
Becoming Apr-22 @ 03:00 - Apr-22 @ 06:00
Wind Visibility
Variable at 3 knots 10,000+ meters
Clouds
  • No significant clouds
Conditions